Time;durP1;ratioP1;P1;durP2;ratioP2;P2;SDS_P1;SDS_P2;PMS_P1;PMS_P2;Temp;Humidity;BMP_temperature;BMP_pressure;BME280_temperature;BME280_humidity;BME280_pressure;Samples;Min_cycle;Max_cycle;Signal;HPM_P1;HPM_P2
2023/05/17 00:01:34;;;;;;;6.95;2.20;;;20.40;82.10;;;;;;5055473;28;20454;-61
2023/05/17 00:04:00;;;;;;;7.93;2.47;;;20.50;83.10;;;;;;5060119;28;20080;-60
2023/05/17 00:06:25;;;;;;;8.50;2.88;;;20.70;83.20;;;;;;5072609;28;20127;-61
2023/05/17 00:08:51;;;;;;;7.72;2.45;;;20.50;83.10;;;;;;5072660;28;20124;-60
2023/05/17 00:11:17;;;;;;;6.28;2.40;;;20.70;80.70;;;;;;5071698;28;20072;-61
2023/05/17 00:13:43;;;;;;;7.70;2.60;;;20.60;83.00;;;;;;5069354;28;20106;-66
2023/05/17 00:16:08;;;;;;;7.95;2.58;;;20.70;80.30;;;;;;5072194;28;20089;-66
2023/05/17 00:18:35;;;;;;;8.07;2.50;;;;;;;;;;5071126;28;20571;-66
2023/05/17 00:21:01;;;;;;;8.98;2.78;;;;;;;;;;5069774;28;20052;-61
2023/05/17 00:23:27;;;;;;;7.88;2.25;;;20.60;82.80;;;;;;5070978;28;20063;-61
2023/05/17 00:25:52;;;;;;;6.63;2.53;;;20.70;82.80;;;;;;5071463;28;20040;-67
2023/05/17 00:28:18;;;;;;;6.82;2.17;;;20.50;82.70;;;;;;5068967;28;20047;-65
2023/05/17 00:30:44;;;;;;;7.35;2.65;;;20.30;82.50;;;;;;5057958;28;22249;-61
2023/05/17 00:33:10;;;;;;;8.50;2.28;;;;;;;;;;5066130;28;20052;-63
2023/05/17 00:35:36;;;;;;;7.30;2.63;;;;;;;;;;5073675;28;20048;-61
2023/05/17 00:38:01;;;;;;;12.10;2.70;;;20.40;82.50;;;;;;5076212;28;20141;-60
2023/05/17 00:40:28;;;;;;;8.13;2.42;;;;;;;;;;5074667;28;20075;-65
2023/05/17 00:42:53;;;;;;;8.93;2.75;;;20.50;82.30;;;;;;5055709;28;20507;-61
2023/05/17 00:45:19;;;;;;;8.68;2.45;;;20.30;82.30;;;;;;5061821;28;20059;-61
2023/05/17 00:47:45;;;;;;;8.77;2.35;;;;;;;;;;5074701;28;20064;-61
2023/05/17 00:50:11;;;;;;;7.90;2.55;;;20.50;82.40;;;;;;5076329;28;20432;-60
2023/05/17 00:52:37;;;;;;;7.03;2.33;;;;;;;;;;5067197;28;20049;-61
2023/05/17 00:55:03;;;;;;;8.25;2.63;;;20.30;79.70;;;;;;5059291;28;20103;-60
2023/05/17 00:57:30;;;;;;;9.75;3.00;;;20.30;82.20;;;;;;5074549;28;20048;-60
2023/05/17 00:59:56;;;;;;;8.50;2.25;;;20.30;79.70;;;;;;5075796;28;20052;-61
2023/05/17 01:02:22;;;;;;;10.50;2.55;;;20.10;82.10;;;;;;5063524;28;20513;-62
2023/05/17 01:04:48;;;;;;;7.70;2.53;;;20.20;82.20;;;;;;5072700;28;20045;-66
2023/05/17 01:07:14;;;;;;;6.95;2.22;;;20.20;82.20;;;;;;5074981;28;20064;-64
2023/05/17 01:09:40;;;;;;;7.50;2.30;;;20.20;80.90;;;;;;5074501;28;20048;-63
2023/05/17 01:12:18;;;;;;;8.07;2.22;;;20.30;79.00;;;;;;5063383;28;20044;-66
2023/05/17 01:14:54;;;;;;;9.20;2.65;;;20.30;82.10;;;;;;5068524;28;20044;-62
2023/05/17 01:17:39;;;;;;;6.13;2.22;;;20.20;82.10;;;;;;5075498;28;20474;-67
2023/05/17 01:20:13;;;;;;;7.45;2.10;;;20.40;77.40;;;;;;5074122;28;20101;-65
2023/05/17 01:23:07;;;;;;;7.53;2.42;;;20.00;81.90;;;;;;5064610;28;20535;-60
2023/05/17 01:26:13;;;;;;;11.68;2.78;;;20.30;78.00;;;;;;5063954;28;20178;-61
2023/05/17 01:28:39;;;;;;;6.63;2.20;;;;;;;;;;5067531;28;20048;-62
2023/05/17 01:31:04;;;;;;;10.63;2.70;;;20.30;82.00;;;;;;5055267;28;20178;-61
2023/05/17 01:33:30;;;;;;;6.78;2.47;;;20.20;81.70;;;;;;5073888;28;20131;-62
2023/05/17 01:35:56;;;;;;;9.90;2.05;;;;;;;;;;5055512;28;20435;-61
2023/05/17 01:38:22;;;;;;;8.60;2.08;;;;;;;;;;5075059;28;20543;-63
2023/05/17 01:40:55;;;;;;;8.10;2.47;;;20.20;81.90;;;;;;5075238;28;20083;-66
2023/05/17 01:43:24;;;;;;;7.43;2.30;;;20.20;81.90;;;;;;5056848;28;20048;-67
2023/05/17 01:46:05;;;;;;;7.03;2.22;;;20.30;81.90;;;;;;5054864;28;20133;-61
2023/05/17 01:48:36;;;;;;;7.72;2.28;;;20.10;81.90;;;;;;5073798;28;20053;-62
2023/05/17 01:51:02;;;;;;;7.45;2.15;;;;;;;;;;5074731;28;20052;-61
2023/05/17 01:53:45;;;;;;;7.93;2.33;;;20.30;77.10;;;;;;5058431;28;20055;-64
2023/05/17 01:56:14;;;;;;;7.45;2.28;;;20.30;82.00;;;;;;5065014;28;20060;-66
2023/05/17 01:58:47;;;;;;;7.80;2.60;;;20.30;81.90;;;;;;5071374;28;20044;-66
2023/05/17 02:01:17;;;;;;;8.63;1.95;;;20.10;81.80;;;;;;5073631;28;20048;-67
2023/05/17 02:03:42;;;;;;;7.18;1.95;;;20.10;81.70;;;;;;5072483;28;20096;-67
2023/05/17 02:06:09;;;;;;;5.90;1.98;;;;;;;;;;5063267;28;20134;-67
2023/05/17 02:08:35;;;;;;;7.03;2.65;;;20.30;81.80;;;;;;5072970;28;20554;-62
2023/05/17 02:11:01;;;;;;;7.13;2.20;;;;;;;;;;5054147;28;20049;-61
2023/05/17 02:13:27;;;;;;;9.27;2.22;;;20.10;81.70;;;;;;5054455;28;20106;-61
2023/05/17 02:15:52;;;;;;;8.63;2.40;;;20.10;81.80;;;;;;5060098;28;20493;-62
2023/05/17 02:18:20;;;;;;;6.18;1.73;;;;;;;;;;5057917;28;20040;-66
2023/05/17 02:20:46;;;;;;;7.10;2.00;;;20.20;81.80;;;;;;5066817;28;20451;-66
2023/05/17 02:23:12;;;;;;;4.68;1.58;;;20.10;81.80;;;;;;5054651;28;20103;-67
2023/05/17 02:25:37;;;;;;;5.85;2.10;;;20.20;81.90;;;;;;5056047;28;20041;-67
2023/05/17 02:28:03;;;;;;;8.43;2.35;;;20.20;81.90;;;;;;5072190;28;20076;-66
2023/05/17 02:30:30;;;;;;;8.20;2.72;;;;;;;;;;5073284;28;20444;-63
2023/05/17 02:32:55;;;;;;;8.40;2.22;;;20.30;81.70;;;;;;5067808;28;20084;-62
2023/05/17 02:35:21;;;;;;;6.45;1.80;;;20.30;77.50;;;;;;5063647;28;20064;-62
2023/05/17 02:37:48;;;;;;;7.75;1.85;;;20.30;81.70;;;;;;5068145;28;20547;-66
2023/05/17 02:40:14;;;;;;;7.72;1.90;;;20.10;81.70;;;;;;5056436;28;20098;-66
2023/05/17 02:42:40;;;;;;;7.72;1.65;;;20.30;79.50;;;;;;5055698;28;20056;-66
2023/05/17 02:45:06;;;;;;;5.60;1.73;;;20.00;81.60;;;;;;5067217;28;20390;-66
2023/05/17 02:47:32;;;;;;;8.38;2.05;;;20.00;81.60;;;;;;5052399;28;20045;-62
2023/05/17 02:49:58;;;;;;;6.30;1.73;;;;;;;;;;5070606;28;20044;-60
2023/05/17 02:52:24;;;;;;;8.38;2.00;;;;;;;;;;5060745;28;20049;-62
2023/05/17 02:54:50;;;;;;;5.05;2.08;;;;;;;;;;5055034;28;20247;-61
2023/05/17 02:57:16;;;;;;;6.57;1.70;;;20.00;81.10;;;;;;5070900;28;20040;-62
2023/05/17 02:59:42;;;;;;;6.25;1.60;;;19.90;81.30;;;;;;5057163;28;20410;-62
2023/05/17 03:02:07;;;;;;;7.50;1.75;;;20.10;81.40;;;;;;5053325;28;20048;-62
2023/05/17 03:04:33;;;;;;;6.28;1.63;;;20.00;81.20;;;;;;5053430;28;20053;-62
2023/05/17 03:06:59;;;;;;;7.25;1.80;;;20.00;81.20;;;;;;5073943;28;20450;-61
2023/05/17 03:09:25;;;;;;;6.82;1.70;;;20.20;81.40;;;;;;5063503;28;20194;-66
2023/05/17 03:11:50;;;;;;;7.78;1.58;;;20.20;81.20;;;;;;5065403;28;20576;-62
2023/05/17 03:14:16;;;;;;;8.00;2.00;;;;;;;;;;5061603;28;20135;-63
2023/05/17 03:16:42;;;;;;;5.60;1.48;;;;;;;;;;5053466;28;20033;-61
2023/05/17 03:19:09;;;;;;;4.63;1.48;;;;;;;;;;5058359;28;20186;-61
2023/05/17 03:21:34;;;;;;;10.10;1.88;;;20.10;80.30;;;;;;5066329;28;20158;-61
2023/05/17 03:24:00;;;;;;;4.50;1.30;;;19.90;81.00;;;;;;5054272;28;20494;-61
2023/05/17 03:26:26;;;;;;;6.82;1.40;;;20.20;81.20;;;;;;5072192;28;20110;-62
2023/05/17 03:28:52;;;;;;;4.85;1.40;;;20.10;80.10;;;;;;5072209;28;20098;-63
2023/05/17 03:31:18;;;;;;;5.05;1.38;;;20.00;79.30;;;;;;5053181;28;20045;-63
2023/05/17 03:33:44;;;;;;;6.72;1.48;;;20.00;81.10;;;;;;5057064;28;20478;-62
2023/05/17 03:36:10;;;;;;;6.40;1.90;;;20.10;81.20;;;;;;5070462;28;20505;-63
2023/05/17 03:38:36;;;;;;;5.75;1.58;;;20.00;81.10;;;;;;5053542;28;20041;-62
2023/05/17 03:41:02;;;;;;;11.02;2.33;;;19.90;77.80;;;;;;5057982;28;20051;-62
2023/05/17 03:43:28;;;;;;;5.32;1.55;;;;;;;;;;5070660;28;20040;-63
2023/05/17 03:45:54;;;;;;;6.53;1.60;;;;;;;;;;5066630;28;20040;-66
2023/05/17 03:48:20;;;;;;;5.63;1.70;;;20.00;78.80;;;;;;5052983;28;20572;-67
2023/05/17 03:50:46;;;;;;;5.32;1.40;;;;;;;;;;5071094;28;20055;-66
2023/05/17 03:53:12;;;;;;;4.65;1.42;;;;;;;;;;5071967;28;20485;-66
2023/05/17 03:55:38;;;;;;;6.60;1.80;;;;;;;;;;5055040;28;20098;-67
2023/05/17 03:58:05;;;;;;;7.53;1.83;;;20.10;80.90;;;;;;5056790;28;20054;-66
2023/05/17 04:00:31;;;;;;;4.40;1.38;;;;;;;;;;5072402;28;20053;-66
2023/05/17 04:02:57;;;;;;;5.47;2.03;;;20.10;80.80;;;;;;5063026;28;20105;-67
2023/05/17 04:05:23;;;;;;;4.75;1.50;;;;;;;;;;5057303;28;20533;-68
2023/05/17 04:07:49;;;;;;;7.13;1.95;;;;;;;;;;5052350;28;20052;-62
2023/05/17 04:10:16;;;;;;;6.47;1.50;;;;;;;;;;5052536;28;20094;-61
2023/05/17 04:12:41;;;;;;;7.18;1.65;;;20.10;80.80;;;;;;5070186;28;20128;-62
2023/05/17 04:15:07;;;;;;;4.57;1.40;;;20.10;81.00;;;;;;5065245;28;20170;-62
2023/05/17 04:17:34;;;;;;;4.78;2.03;;;;;;;;;;5071613;28;20373;-62
2023/05/17 04:20:00;;;;;;;6.20;1.70;;;20.20;80.80;;;;;;5071625;28;20451;-62
2023/05/17 04:22:26;;;;;;;6.60;1.50;;;;;;;;;;5061003;28;20175;-62
2023/05/17 04:24:51;;;;;;;6.30;1.67;;;20.20;80.30;;;;;;5065361;28;20493;-61
2023/05/17 04:27:17;;;;;;;6.43;1.65;;;;;;;;;;5058203;28;20040;-62
2023/05/17 04:29:43;;;;;;;5.32;1.35;;;20.10;80.60;;;;;;5052040;28;20041;-62
2023/05/17 04:32:09;;;;;;;5.90;1.70;;;;;;;;;;5058665;28;20134;-62
2023/05/17 04:34:35;;;;;;;6.40;1.85;;;20.30;80.60;;;;;;5069286;28;20101;-62
2023/05/17 04:37:02;;;;;;;5.45;1.60;;;;;;;;;;5060822;28;20459;-61
2023/05/17 04:39:28;;;;;;;6.32;1.60;;;19.90;80.40;;;;;;5052186;28;20049;-62
2023/05/17 04:41:54;;;;;;;4.50;1.50;;;20.20;80.50;;;;;;5052045;28;20037;-62
2023/05/17 04:44:19;;;;;;;7.75;1.50;;;20.40;80.60;;;;;;5055715;28;20060;-62
2023/05/17 04:46:46;;;;;;;7.10;2.28;;;;;;;;;;5070362;28;20067;-65
2023/05/17 04:49:13;;;;;;;5.72;1.40;;;;;;;;;;5069904;28;20041;-66
2023/05/17 04:51:38;;;;;;;7.85;1.77;;;20.20;79.10;;;;;;5071019;28;20448;-66
2023/05/17 04:54:07;;;;;;;4.95;1.50;;;20.00;78.40;;;;;;5070909;28;20044;-66
2023/05/17 04:56:35;;;;;;;3.00;1.10;;;;;;;;;;5070210;28;20116;-65
2023/05/17 04:59:01;;;;;;;5.70;1.52;;;;;;;;;;5056871;28;20060;-65
2023/05/17 05:01:29;;;;;;;2.92;1.02;;;;;;;;;;5064098;28;20400;-66
2023/05/17 05:03:56;;;;;;;5.18;1.50;;;20.00;80.20;;;;;;5067335;28;20080;-66
2023/05/17 05:06:22;;;;;;;6.63;1.42;;;20.20;80.30;;;;;;5071161;28;20047;-62
2023/05/17 05:08:48;;;;;;;6.18;1.85;;;20.10;80.30;;;;;;5070393;28;20401;-66
2023/05/17 05:11:14;;;;;;;6.82;1.70;;;20.20;80.30;;;;;;5071729;28;20040;-66
2023/05/17 05:13:41;;;;;;;5.43;1.50;;;20.20;80.20;;;;;;5063682;28;20074;-66
2023/05/17 05:16:07;;;;;;;6.88;1.60;;;20.30;78.80;;;;;;5071073;28;20123;-66
2023/05/17 05:18:33;;;;;;;6.07;1.45;;;20.10;78.90;;;;;;5070029;28;20119;-66
2023/05/17 05:20:59;;;;;;;6.60;1.63;;;20.30;76.00;;;;;;5055168;28;20543;-65
2023/05/17 05:23:26;;;;;;;4.60;1.30;;;;;;;;;;5062654;28;20426;-66
2023/05/17 05:25:51;;;;;;;4.55;1.50;;;20.30;77.90;;;;;;5073428;28;20083;-66
2023/05/17 05:28:18;;;;;;;6.80;1.80;;;;;;;;;;5074361;28;20513;-66
2023/05/17 05:30:44;;;;;;;6.45;1.90;;;;;;;;;;5063924;28;20128;-66
2023/05/17 05:33:10;;;;;;;6.30;1.90;;;;;;;;;;5055740;28;20269;-65
2023/05/17 05:35:35;;;;;;;5.90;1.60;;;20.40;80.00;;;;;;5073620;28;20040;-66
2023/05/17 05:38:01;;;;;;;6.55;1.70;;;20.70;78.00;;;;;;5073267;28;20059;-66
2023/05/17 05:40:27;;;;;;;6.68;1.88;;;20.40;79.70;;;;;;5071795;28;20424;-66
2023/05/17 05:42:53;;;;;;;7.97;1.90;;;20.70;80.00;;;;;;5061927;28;20049;-62
2023/05/17 05:45:20;;;;;;;6.72;1.73;;;20.60;79.80;;;;;;5054976;28;20036;-64
2023/05/17 05:47:46;;;;;;;7.10;1.98;;;20.60;77.50;;;;;;5053904;28;20082;-61
2023/05/17 05:50:11;;;;;;;6.30;1.90;;;20.20;79.70;;;;;;5067474;28;20086;-66
2023/05/17 05:52:38;;;;;;;6.85;2.13;;;;;;;;;;5065727;28;20191;-65
2023/05/17 05:55:04;;;;;;;8.35;2.10;;;20.30;79.70;;;;;;5061562;28;20084;-66
2023/05/17 05:57:30;;;;;;;8.88;2.28;;;20.50;79.70;;;;;;5064297;28;20051;-65
2023/05/17 05:59:56;;;;;;;7.90;1.90;;;20.30;78.00;;;;;;5067098;28;20041;-65
2023/05/17 06:02:22;;;;;;;6.00;1.60;;;20.40;79.00;;;;;;5061513;28;20033;-66
2023/05/17 06:04:47;;;;;;;7.90;1.80;;;20.50;79.70;;;;;;5056951;28;20059;-65
2023/05/17 06:07:13;;;;;;;6.75;2.30;;;20.70;79.60;;;;;;5071676;28;20135;-62
2023/05/17 06:09:40;;;;;;;6.93;1.50;;;;;;;;;;5073725;28;20133;-64
2023/05/17 06:12:05;;;;;;;6.13;1.98;;;20.70;79.50;;;;;;5074416;28;20447;-61
2023/05/17 06:14:31;;;;;;;6.30;1.80;;;20.40;79.40;;;;;;5062816;28;20048;-62
2023/05/17 06:16:57;;;;;;;8.38;2.33;;;20.60;78.90;;;;;;5061314;28;20041;-65
2023/05/17 06:19:23;;;;;;;6.78;1.80;;;20.30;79.40;;;;;;5074790;28;20152;-65
2023/05/17 06:21:49;;;;;;;6.65;1.77;;;;;;;;;;5074601;28;20040;-65
2023/05/17 06:24:15;;;;;;;6.43;1.55;;;20.80;77.40;;;;;;5071516;28;20048;-66
2023/05/17 06:26:42;;;;;;;11.93;2.70;;;20.20;79.40;;;;;;5073181;28;20040;-66
2023/05/17 06:29:09;;;;;;;4.63;1.48;;;20.50;77.50;;;;;;5070022;28;20076;-66
2023/05/17 06:31:34;;;;;;;6.25;2.05;;;20.50;76.50;;;;;;5063380;28;20041;-65
2023/05/17 06:34:01;;;;;;;7.57;1.98;;;;;;;;;;5067986;28;20049;-65
2023/05/17 06:36:27;;;;;;;5.57;2.30;;;;;;;;;;5062472;28;20106;-65
2023/05/17 06:38:52;;;;;;;8.10;2.10;;;20.50;78.90;;;;;;5055044;28;20112;-66
2023/05/17 06:41:18;;;;;;;6.43;2.15;;;20.50;79.30;;;;;;5054282;28;20037;-65
2023/05/17 06:43:44;;;;;;;7.70;2.20;;;20.70;75.30;;;;;;5068374;28;20071;-66
2023/05/17 06:46:10;;;;;;;7.15;2.08;;;20.80;79.50;;;;;;5070989;28;20040;-66
2023/05/17 06:48:36;;;;;;;5.65;1.67;;;20.70;79.40;;;;;;5063178;28;20086;-66
2023/05/17 06:51:02;;;;;;;6.03;1.75;;;20.50;79.20;;;;;;5054158;28;20122;-66
2023/05/17 06:53:27;;;;;;;6.20;1.95;;;20.40;79.20;;;;;;5053978;28;20047;-66
2023/05/17 06:55:53;;;;;;;6.40;2.05;;;20.40;79.00;;;;;;5068956;28;20055;-66
2023/05/17 06:58:20;;;;;;;8.88;2.33;;;20.70;76.50;;;;;;5058952;28;20053;-66
2023/05/17 07:00:46;;;;;;;5.65;1.52;;;20.70;77.90;;;;;;5055429;28;20045;-66
2023/05/17 07:03:12;;;;;;;7.75;2.25;;;;;;;;;;5052120;28;20076;-66
2023/05/17 07:05:38;;;;;;;8.80;2.10;;;20.70;79.10;;;;;;5064549;28;20070;-66
2023/05/17 07:08:04;;;;;;;8.68;2.50;;;;;;;;;;5070590;28;20429;-66
2023/05/17 07:10:31;;;;;;;5.45;1.80;;;;;;;;;;5070461;28;20060;-66
2023/05/17 07:12:56;;;;;;;6.35;2.08;;;20.70;79.00;;;;;;5067134;28;20045;-66
2023/05/17 07:15:22;;;;;;;5.82;1.80;;;20.80;79.00;;;;;;5068324;28;20067;-66
2023/05/17 07:17:48;;;;;;;9.00;1.77;;;20.70;79.00;;;;;;5059927;28;20051;-61
2023/05/17 07:20:14;;;;;;;8.60;2.25;;;20.40;78.90;;;;;;5053451;28;20459;-63
2023/05/17 07:22:40;;;;;;;6.10;2.00;;;20.70;77.50;;;;;;5063343;28;20102;-64
2023/05/17 07:25:07;;;;;;;6.13;1.98;;;20.80;79.00;;;;;;5067886;28;20068;-63
2023/05/17 07:27:32;;;;;;;5.25;1.48;;;20.70;77.40;;;;;;5059159;28;20193;-64
2023/05/17 07:29:59;;;;;;;5.70;1.80;;;20.80;75.80;;;;;;5069222;28;20529;-66
2023/05/17 07:32:25;;;;;;;7.97;1.90;;;20.50;78.80;;;;;;5067298;28;20040;-66
2023/05/17 07:34:51;;;;;;;5.35;1.40;;;20.80;77.60;;;;;;5072308;28;20079;-62
2023/05/17 07:37:17;;;;;;;5.75;1.83;;;20.70;78.90;;;;;;5073017;28;20454;-62
2023/05/17 07:39:43;;;;;;;6.00;2.05;;;;;;;;;;5069915;28;20158;-65
2023/05/17 07:42:09;;;;;;;6.63;2.08;;;20.50;78.90;;;;;;5060384;28;20147;-66
2023/05/17 07:44:35;;;;;;;6.78;1.70;;;;;;;;;;5066853;28;20135;-66
2023/05/17 07:47:01;;;;;;;8.05;2.00;;;20.70;79.20;;;;;;5064163;28;20048;-66
2023/05/17 07:49:27;;;;;;;6.63;2.10;;;;;;;;;;5072924;28;20044;-66
2023/05/17 07:51:54;;;;;;;6.97;2.00;;;20.60;79.00;;;;;;5072575;28;20550;-61
2023/05/17 07:54:23;;;;;;;7.80;1.98;;;20.70;79.00;;;;;;5070912;28;20056;-65
2023/05/17 07:56:51;;;;;;;7.25;1.88;;;20.80;79.00;;;;;;5071984;28;20040;-62
2023/05/17 07:59:17;;;;;;;6.65;2.03;;;20.60;75.50;;;;;;5072413;28;20497;-62
2023/05/17 08:01:43;;;;;;;8.35;2.00;;;20.80;78.70;;;;;;5052617;28;20080;-62
2023/05/17 08:04:09;;;;;;;9.68;2.15;;;;;;;;;;5057020;28;20528;-64
2023/05/17 08:06:35;;;;;;;6.20;1.75;;;20.90;78.70;;;;;;5071830;28;20127;-63
2023/05/17 08:09:01;;;;;;;4.13;1.50;;;21.20;78.80;;;;;;5062581;28;20120;-61
2023/05/17 08:11:27;;;;;;;7.97;2.28;;;21.20;76.40;;;;;;5057475;28;20037;-66
2023/05/17 08:13:53;;;;;;;9.20;2.20;;;;;;;;;;5066504;28;20457;-66
2023/05/17 08:16:19;;;;;;;7.07;1.95;;;21.20;78.40;;;;;;5052740;28;20043;-66
2023/05/17 08:18:45;;;;;;;5.93;1.90;;;21.10;78.30;;;;;;5061573;28;20056;-66
2023/05/17 08:21:11;;;;;;;5.15;1.48;;;21.20;78.30;;;;;;5072231;28;20036;-66
2023/05/17 08:23:36;;;;;;;8.07;2.03;;;21.10;78.30;;;;;;5071652;28;20375;-66
2023/05/17 08:26:02;;;;;;;5.82;1.50;;;21.20;78.30;;;;;;5072482;28;20127;-66
2023/05/17 08:28:28;;;;;;;4.72;1.67;;;21.20;78.30;;;;;;5063728;28;20041;-66
2023/05/17 08:30:54;;;;;;;9.50;2.20;;;;;;;;;;5056513;28;20123;-66
2023/05/17 08:33:21;;;;;;;7.53;1.80;;;21.30;78.20;;;;;;5070315;28;20051;-66
2023/05/17 08:35:47;;;;;;;5.55;1.65;;;21.20;78.10;;;;;;5065189;28;20459;-62
2023/05/17 08:38:14;;;;;;;8.18;2.15;;;;;;;;;;5052647;28;20048;-65
2023/05/17 08:40:40;;;;;;;7.82;1.50;;;21.40;78.20;;;;;;5052586;28;20045;-64
2023/05/17 08:43:06;;;;;;;8.80;2.30;;;21.00;77.80;;;;;;5061608;28;20097;-64
2023/05/17 08:45:32;;;;;;;6.57;1.70;;;21.20;77.90;;;;;;5046647;28;20049;-63
2023/05/17 08:47:57;;;;;;;5.53;1.70;;;21.10;77.90;;;;;;5058303;28;20052;-66
2023/05/17 08:50:24;;;;;;;6.80;1.88;;;21.10;77.70;;;;;;5070556;28;20087;-64
2023/05/17 08:52:50;;;;;;;6.65;1.77;;;;;;;;;;5065472;28;20109;-62
2023/05/17 08:55:17;;;;;;;5.72;1.77;;;21.30;77.90;;;;;;5053436;28;20478;-66
2023/05/17 08:57:42;;;;;;;7.13;1.92;;;20.90;77.70;;;;;;5077775;28;20049;-66
2023/05/17 09:00:11;;;;;;;7.85;2.08;;;20.80;76.90;;;;;;5071414;28;20447;-62
2023/05/17 09:02:37;;;;;;;7.20;2.10;;;;;;;;;;5071722;28;20428;-65
2023/05/17 09:05:05;;;;;;;8.00;1.67;;;21.00;78.00;;;;;;5069378;28;20060;-66
2023/05/17 09:07:31;;;;;;;6.88;2.10;;;20.70;77.80;;;;;;5056191;28;20390;-67
2023/05/17 09:09:57;;;;;;;10.05;1.60;;;20.90;77.30;;;;;;5056003;28;20445;-68
2023/05/17 09:12:23;;;;;;;7.82;2.03;;;20.70;77.00;;;;;;5055861;28;20087;-68
2023/05/17 09:14:49;;;;;;;7.63;2.25;;;20.80;76.70;;;;;;5071066;28;20044;-67
2023/05/17 09:17:18;;;;;;;9.27;2.25;;;20.50;75.90;;;;;;5064312;28;20118;-66
2023/05/17 09:19:45;;;;;;;8.85;2.38;;;20.70;76.10;;;;;;5054214;28;20482;-66
2023/05/17 09:22:16;;;;;;;8.63;2.40;;;20.80;75.90;;;;;;5055991;28;20052;-63
2023/05/17 09:24:42;;;;;;;8.23;2.10;;;20.60;75.90;;;;;;5069792;28;20044;-65
2023/05/17 09:27:08;;;;;;;6.82;1.95;;;20.80;75.80;;;;;;5068387;28;20487;-66
2023/05/17 09:29:34;;;;;;;10.48;2.25;;;21.00;72.10;;;;;;5055422;28;20036;-65
2023/05/17 09:32:13;;;;;;;5.95;2.10;;;20.60;71.00;;;;;;5056288;28;20044;-64
2023/05/17 09:34:40;;;;;;;8.02;2.00;;;20.90;75.70;;;;;;5055633;28;20045;-64
2023/05/17 09:37:12;;;;;;;8.02;1.80;;;20.50;72.30;;;;;;5060183;28;20059;-63
2023/05/17 09:39:37;;;;;;;8.00;1.80;;;20.70;75.70;;;;;;5062852;28;20049;-64
2023/05/17 09:42:03;;;;;;;6.45;2.13;;;20.50;75.70;;;;;;5065867;28;20085;-64
2023/05/17 09:44:29;;;;;;;6.88;1.67;;;20.80;75.80;;;;;;5074092;28;20181;-66
2023/05/17 09:46:56;;;;;;;8.20;2.03;;;20.40;75.60;;;;;;5073532;28;20444;-61
2023/05/17 09:49:25;;;;;;;8.35;2.00;;;20.60;73.50;;;;;;5067192;28;20045;-67
2023/05/17 09:51:51;;;;;;;7.97;1.85;;;20.70;75.70;;;;;;5062722;28;20044;-62
2023/05/17 09:54:18;;;;;;;8.02;2.08;;;;;;;;;;5066233;28;20135;-66
2023/05/17 09:56:43;;;;;;;6.93;1.80;;;20.60;75.60;;;;;;5057763;28;20041;-64
2023/05/17 09:59:18;;;;;;;8.15;1.85;;;20.90;75.70;;;;;;5054951;28;20060;-61
2023/05/17 10:01:44;;;;;;;8.57;2.28;;;;;;;;;;5072146;28;20127;-64
2023/05/17 10:04:10;;;;;;;6.45;1.90;;;20.80;75.60;;;;;;5055971;28;20041;-64
2023/05/17 10:06:40;;;;;;;15.30;2.60;;;20.80;75.60;;;;;;5073914;28;20391;-67
2023/05/17 10:09:07;;;;;;;6.90;1.77;;;20.80;75.60;;;;;;5061574;28;20048;-61
2023/05/17 10:11:33;;;;;;;7.25;1.67;;;21.10;74.20;;;;;;5066942;28;20041;-64
2023/05/17 10:14:05;;;;;;;6.43;1.73;;;21.00;74.00;;;;;;5055344;28;20114;-66
2023/05/17 10:16:33;;;;;;;5.75;1.85;;;21.30;75.60;;;;;;5059919;28;20041;-61
2023/05/17 10:18:59;;;;;;;6.95;2.10;;;21.00;75.40;;;;;;5071533;28;20052;-62
2023/05/17 10:21:25;;;;;;;7.22;1.50;;;21.00;75.50;;;;;;5073152;28;20041;-62
2023/05/17 10:23:51;;;;;;;7.80;2.10;;;21.00;75.40;;;;;;5072221;28;20044;-63
2023/05/17 10:26:17;;;;;;;7.97;1.83;;;;;;;;;;5073364;28;20107;-62
2023/05/17 10:28:45;;;;;;;5.10;1.83;;;;;;;;;;5069269;28;20164;-64
2023/05/17 10:31:11;;;;;;;6.93;1.65;;;21.10;75.50;;;;;;5062621;28;20077;-61
2023/05/17 10:33:36;;;;;;;7.18;2.05;;;21.20;75.50;;;;;;5048797;28;20155;-61
2023/05/17 10:36:02;;;;;;;5.28;1.50;;;21.10;75.40;;;;;;5066480;28;20037;-63
2023/05/17 10:38:29;;;;;;;6.10;1.95;;;;;;;;;;5052714;28;20120;-64
2023/05/17 10:40:55;;;;;;;5.07;1.50;;;21.20;75.50;;;;;;5058403;28;20044;-63
2023/05/17 10:43:21;;;;;;;6.90;1.77;;;21.20;75.50;;;;;;5052987;28;20049;-63
2023/05/17 10:45:47;;;;;;;5.80;1.83;;;21.30;75.60;;;;;;5058677;28;20048;-68
2023/05/17 10:48:17;;;;;;;5.25;1.60;;;21.10;75.60;;;;;;5057199;28;20501;-62
2023/05/17 10:50:45;;;;;;;6.43;1.98;;;21.20;75.70;;;;;;5071892;28;20044;-61
2023/05/17 10:53:11;;;;;;;6.25;1.88;;;21.00;75.10;;;;;;5055326;28;20131;-60
2023/05/17 10:55:43;;;;;;;6.03;1.70;;;21.40;75.80;;;;;;5054975;28;20546;-69
2023/05/17 10:58:09;;;;;;;;;;;21.30;73.30;;;;;;5054057;28;20544;-68
2023/05/17 11:00:53;;;;;;;5.78;1.60;;;21.10;75.70;;;;;;5067486;28;20007;-67
2023/05/17 11:03:27;;;;;;;7.45;1.70;;;21.10;72.60;;;;;;5046487;28;20044;-65
2023/05/17 11:06:13;;;;;;;5.95;1.90;;;21.50;75.90;;;;;;5083695;28;20064;-67
2023/05/17 11:08:46;;;;;;;5.53;1.75;;;21.20;75.70;;;;;;5066804;28;20127;-67
2023/05/17 11:11:12;;;;;;;;;;;21.20;73.00;;;;;;5053875;28;20080;-65
2023/05/17 11:13:53;;;;;;;5.32;1.60;;;21.10;75.80;;;;;;5053184;28;19928;-65
2023/05/17 11:16:27;;;;;;;6.65;1.75;;;21.40;75.90;;;;;;5054700;28;20102;-65
2023/05/17 11:18:54;;;;;;;5.22;1.42;;;21.10;72.60;;;;;;5058408;28;20068;-65
2023/05/17 11:21:21;;;;;;;6.38;1.88;;;21.50;76.10;;;;;;5070784;28;20049;-65
2023/05/17 11:23:47;;;;;;;7.78;1.83;;;21.20;75.90;;;;;;5073131;28;20037;-62
2023/05/17 11:26:23;;;;;;;5.03;1.48;;;21.30;75.90;;;;;;5056129;28;20057;-67
2023/05/17 11:29:06;;;;;;;4.88;1.75;;;21.30;75.90;;;;;;5062273;28;20093;-62
2023/05/17 11:31:33;;;;;;;;;;;21.30;73.10;;;;;;5072299;28;20082;-63
2023/05/17 11:34:00;;;;;;;6.45;1.73;;;21.40;75.50;;;;;;5072882;28;20005;-68
2023/05/17 11:36:26;;;;;;;6.20;2.10;;;;;;;;;;5070564;28;20075;-65
2023/05/17 11:39:11;;;;;;;6.82;1.77;;;21.30;74.40;;;;;;5071920;28;20465;-65
2023/05/17 11:41:40;;;;;;;4.95;1.80;;;21.30;75.50;;;;;;5069867;28;20048;-64
2023/05/17 11:44:07;;;;;;;8.10;2.00;;;;;;;;;;5056363;28;20076;-66
2023/05/17 11:46:33;;;;;;;7.40;1.92;;;21.50;75.70;;;;;;5058213;28;20053;-65
2023/05/17 11:48:59;;;;;;;10.90;2.42;;;21.30;75.60;;;;;;5061862;28;20440;-66
2023/05/17 11:51:25;;;;;;;8.50;1.90;;;21.50;75.70;;;;;;5071808;28;20048;-68
2023/05/17 11:53:53;;;;;;;8.75;2.05;;;21.60;75.70;;;;;;5071451;28;20044;-66
2023/05/17 11:56:20;;;;;;;11.35;2.80;;;;;;;;;;5062511;28;20055;-62
2023/05/17 11:58:46;;;;;;;12.05;2.65;;;21.60;75.50;;;;;;5063998;28;20052;-65
2023/05/17 12:01:12;;;;;;;10.88;2.10;;;21.60;74.00;;;;;;5051022;28;20445;-67
2023/05/17 12:03:38;;;;;;;10.57;2.17;;;21.30;75.20;;;;;;5052471;28;20135;-67
2023/05/17 12:06:08;;;;;;;15.38;2.75;;;21.60;75.60;;;;;;5052268;28;20198;-62
2023/05/17 12:08:35;;;;;;;9.20;1.95;;;21.70;75.60;;;;;;5053057;28;20060;-64
2023/05/17 12:11:01;;;;;;;13.15;2.10;;;21.50;75.40;;;;;;5055063;28;20048;-61
2023/05/17 12:13:31;;;;;;;11.50;2.33;;;21.70;72.00;;;;;;5052671;28;20053;-63
2023/05/17 12:16:00;;;;;;;8.40;2.10;;;21.70;75.30;;;;;;5052296;28;20041;-62
2023/05/17 12:18:35;;;;;;;7.63;2.00;;;21.80;75.20;;;;;;5061778;28;20055;-62
2023/05/17 12:21:01;;;;;;;8.90;2.15;;;21.50;75.00;;;;;;5055017;28;20320;-66
2023/05/17 12:23:32;;;;;;;10.63;1.83;;;21.60;75.10;;;;;;5052299;28;20052;-68
2023/05/17 12:26:04;;;;;;;9.63;2.00;;;21.50;70.40;;;;;;5052107;28;20082;-64
2023/05/17 12:28:30;;;;;;;;;;;21.50;71.80;;;;;;5054140;28;20044;-62
2023/05/17 12:30:57;;;;;;;10.93;2.45;;;21.60;74.30;;;;;;5051087;28;19917;-67
2023/05/17 12:33:26;;;;;;;10.32;2.30;;;21.60;71.00;;;;;;5051181;28;20128;-67
2023/05/17 12:35:52;;;;;;;12.50;2.75;;;21.60;73.50;;;;;;5052396;28;20044;-61
2023/05/17 12:38:18;;;;;;;9.70;2.20;;;21.40;72.20;;;;;;5051683;28;20126;-66
2023/05/17 12:40:45;;;;;;;6.15;2.15;;;21.10;73.20;;;;;;5051220;28;20063;-62
2023/05/17 12:43:10;;;;;;;9.85;2.38;;;21.20;73.20;;;;;;5053636;28;20037;-65
2023/05/17 12:45:36;;;;;;;9.02;2.60;;;21.00;72.50;;;;;;5059238;28;20048;-61
2023/05/17 12:48:02;;;;;;;6.90;2.00;;;21.00;73.50;;;;;;5070660;28;20032;-61
2023/05/17 12:50:31;;;;;;;8.30;2.50;;;20.90;73.40;;;;;;5072344;28;20494;-61
2023/05/17 12:52:57;;;;;;;8.35;2.20;;;20.80;70.70;;;;;;5072006;28;20048;-62
2023/05/17 12:55:23;;;;;;;9.93;2.17;;;20.80;73.40;;;;;;5067797;28;20384;-61
2023/05/17 12:57:52;;;;;;;8.73;2.45;;;21.00;73.40;;;;;;5052237;28;20045;-62
2023/05/17 13:00:18;;;;;;;9.07;2.70;;;20.90;73.50;;;;;;5051870;28;20052;-62
2023/05/17 13:02:44;;;;;;;8.70;2.72;;;;;;;;;;5063659;28;20044;-62
2023/05/17 13:05:22;;;;;;;9.48;2.50;;;20.50;73.10;;;;;;5071894;28;20414;-62
2023/05/17 13:07:48;;;;;;;11.35;2.80;;;20.80;73.50;;;;;;5061496;28;20036;-65
2023/05/17 13:10:27;;;;;;;10.80;2.33;;;20.70;73.40;;;;;;5062158;28;20117;-61